createdAt,value
2018-11-29T00:00:41.010Z,101020.00
2018-11-29T00:03:11.515Z,101032.00
2018-11-29T00:05:41.380Z,101022.00
2018-11-29T00:08:10.505Z,101009.00
2018-11-29T00:10:39.575Z,101008.00
2018-11-29T00:13:08.711Z,100996.00
2018-11-29T00:15:38.818Z,100996.00
2018-11-29T00:18:08.211Z,101004.00
2018-11-29T00:20:37.583Z,101023.00
2018-11-29T00:23:06.836Z,101018.00
2018-11-29T00:25:35.999Z,101041.00
2018-11-29T00:28:05.909Z,101030.00
2018-11-29T00:30:34.975Z,101038.00
2018-11-29T00:33:04.033Z,101035.00
2018-11-29T00:35:33.180Z,101027.00
2018-11-29T00:38:02.272Z,101025.00
2018-11-29T00:40:31.345Z,101010.00
2018-11-29T00:43:00.387Z,101004.00
2018-11-29T00:45:29.581Z,101007.00
2018-11-29T00:47:58.682Z,101010.00
2018-11-29T00:50:27.720Z,101015.00
2018-11-29T00:52:56.857Z,101017.00
2018-11-29T00:55:28.015Z,101003.00
2018-11-29T00:57:57.063Z,101007.00
2018-11-29T01:00:26.463Z,101009.00
2018-11-29T01:02:55.565Z,100999.00
2018-11-29T01:05:24.819Z,101001.00
2018-11-29T01:07:53.933Z,100985.00
2018-11-29T01:10:22.976Z,100981.00
2018-11-29T01:12:52.130Z,100986.00
2018-11-29T01:15:21.856Z,100988.00
2018-11-29T01:17:51.604Z,100988.00
2018-11-29T01:20:21.724Z,100985.00
2018-11-29T01:22:50.834Z,100988.00
2018-11-29T01:25:19.967Z,100990.00
2018-11-29T01:27:50.311Z,100988.00
2018-11-29T01:30:20.655Z,101003.00
2018-11-29T01:32:49.912Z,100994.00
2018-11-29T01:35:20.943Z,100987.00
2018-11-29T01:37:50.335Z,100984.00
2018-11-29T01:40:21.586Z,100981.00
2018-11-29T01:42:58.516Z,100960.00
2018-11-29T01:45:27.663Z,100964.00
2018-11-29T01:47:56.854Z,100955.00
2018-11-29T01:50:26.527Z,100970.00
2018-11-29T01:52:58.174Z,100965.00
2018-11-29T01:55:27.287Z,100966.00
2018-11-29T01:57:56.379Z,100962.00
2018-11-29T02:00:25.507Z,100958.00
2018-11-29T02:02:55.635Z,100974.00
2018-11-29T02:05:24.149Z,100985.00
2018-11-29T02:07:53.205Z,100982.00
2018-11-29T02:10:27.852Z,100971.00
2018-11-29T02:12:57.133Z,100971.00
2018-11-29T02:15:26.602Z,100965.00
2018-11-29T02:17:55.820Z,100961.00
2018-11-29T02:23:38.303Z,100950.00
2018-11-29T02:26:07.379Z,100944.00
2018-11-29T02:28:36.413Z,100940.00
2018-11-29T02:31:05.587Z,100944.00
2018-11-29T02:33:34.707Z,100947.00
2018-11-29T02:36:03.962Z,100949.00
2018-11-29T02:38:33.299Z,100953.00
2018-11-29T02:41:03.830Z,100963.00
2018-11-29T02:43:34.915Z,100958.00
2018-11-29T02:46:04.227Z,100959.00
2018-11-29T02:48:33.446Z,100957.00
2018-11-29T02:51:02.609Z,100957.00
2018-11-29T02:53:31.774Z,100948.00
2018-11-29T02:56:00.922Z,100951.00
2018-11-29T02:58:30.160Z,100968.00
2018-11-29T03:00:59.205Z,100971.00
2018-11-29T03:03:28.308Z,100965.00
2018-11-29T03:05:57.361Z,100948.00
2018-11-29T03:08:26.395Z,100955.00
2018-11-29T03:10:55.469Z,100954.00
2018-11-29T03:13:24.503Z,100954.00
2018-11-29T03:15:53.607Z,100962.00
2018-11-29T03:18:22.656Z,100940.00
2018-11-29T03:20:51.775Z,100946.00
2018-11-29T03:23:20.840Z,100932.00
2018-11-29T03:25:49.878Z,100940.00
2018-11-29T03:28:18.897Z,100952.00
2018-11-29T03:30:48.010Z,100942.00
2018-11-29T03:33:17.090Z,100944.00
2018-11-29T03:35:46.185Z,100943.00
2018-11-29T03:38:15.273Z,100934.00
2018-11-29T03:40:44.307Z,100933.00
2018-11-29T03:43:13.343Z,100933.00
2018-11-29T03:45:42.415Z,100924.00
2018-11-29T03:48:11.665Z,100929.00
2018-11-29T03:50:41.460Z,100927.00
2018-11-29T03:53:10.586Z,100925.00
2018-11-29T03:55:39.689Z,100919.00
2018-11-29T03:58:08.821Z,100911.00
2018-11-29T04:00:37.935Z,100911.00
2018-11-29T04:03:07.640Z,100917.00
2018-11-29T04:05:37.280Z,100910.00
2018-11-29T04:08:06.401Z,100915.00
2018-11-29T04:10:35.487Z,100906.00
2018-11-29T04:13:04.578Z,100905.00
2018-11-29T04:15:34.665Z,100891.00
2018-11-29T04:18:03.904Z,100899.00
2018-11-29T04:20:32.971Z,100905.00
2018-11-29T04:23:02.279Z,100896.00
2018-11-29T04:25:32.792Z,100895.00
2018-11-29T04:28:02.097Z,100893.00
2018-11-29T04:30:31.187Z,100889.00
2018-11-29T04:33:00.299Z,100887.00
2018-11-29T04:35:29.436Z,100889.00
2018-11-29T04:37:58.571Z,100892.00
2018-11-29T04:40:28.578Z,100890.00
2018-11-29T04:42:57.818Z,100891.00
2018-11-29T04:46:43.671Z,100899.00
2018-11-29T04:49:12.833Z,100896.00
2018-11-29T04:51:41.995Z,100895.00
2018-11-29T04:54:11.381Z,100899.00
2018-11-29T04:56:40.435Z,100904.00
2018-11-29T04:59:09.862Z,100897.00
2018-11-29T05:01:39.235Z,100905.00
2018-11-29T05:04:08.338Z,100890.00
2018-11-29T05:06:37.994Z,100886.00
2018-11-29T05:09:11.297Z,100892.00
2018-11-29T05:11:40.748Z,100893.00
2018-11-29T05:14:09.840Z,100892.00
2018-11-29T05:16:39.024Z,100891.00
2018-11-29T05:19:08.835Z,100887.00
2018-11-29T05:21:37.944Z,100882.00
2018-11-29T05:24:07.192Z,100880.00
2018-11-29T05:26:36.254Z,100872.00
2018-11-29T05:29:05.468Z,100872.00
2018-11-29T05:31:34.794Z,100883.00
2018-11-29T05:34:04.196Z,100878.00
2018-11-29T05:36:33.514Z,100879.00
2018-11-29T05:39:02.587Z,100878.00
2018-11-29T05:41:31.710Z,100885.00
2018-11-29T05:44:00.835Z,100888.00
2018-11-29T05:46:30.060Z,100883.00
2018-11-29T05:48:59.400Z,100883.00
2018-11-29T05:51:28.572Z,100891.00
2018-11-29T05:53:58.604Z,100892.00
2018-11-29T05:56:27.874Z,100883.00
2018-11-29T05:58:57.421Z,100878.00
2018-11-29T06:01:29.729Z,100865.00
2018-11-29T06:03:59.849Z,100866.00
2018-11-29T06:06:28.956Z,100860.00
2018-11-29T06:08:59.087Z,100859.00
2018-11-29T06:11:28.170Z,100850.00
2018-11-29T06:13:57.281Z,100869.00
2018-11-29T06:16:26.304Z,100855.00
2018-11-29T06:18:55.998Z,100851.00
2018-11-29T06:21:25.062Z,100863.00
2018-11-29T06:23:54.286Z,100871.00
2018-11-29T06:26:23.336Z,100869.00
2018-11-29T06:28:52.407Z,100864.00
2018-11-29T06:31:21.544Z,100871.00
2018-11-29T06:33:50.908Z,100870.00
2018-11-29T06:36:20.047Z,100857.00
2018-11-29T06:38:49.127Z,100866.00
2018-11-29T06:41:18.340Z,100860.00
2018-11-29T06:43:47.464Z,100867.00
2018-11-29T06:46:17.543Z,100891.00
2018-11-29T06:48:46.651Z,100865.00
2018-11-29T06:51:15.704Z,100869.00
2018-11-29T06:53:50.101Z,100861.00
2018-11-29T06:56:19.304Z,100846.00
2018-11-29T06:58:48.373Z,100847.00
2018-11-29T07:01:17.607Z,100849.00
2018-11-29T07:03:49.081Z,100852.00
2018-11-29T07:06:18.285Z,100847.00
2018-11-29T07:08:47.386Z,100849.00
2018-11-29T07:11:16.574Z,100850.00
2018-11-29T07:13:45.864Z,100852.00
2018-11-29T07:16:15.990Z,100851.00
2018-11-29T07:18:45.490Z,100857.00
2018-11-29T07:21:31.870Z,100864.00
2018-11-29T07:24:00.948Z,100850.00
2018-11-29T07:26:30.117Z,100844.00
2018-11-29T07:28:59.364Z,100837.00
2018-11-29T07:31:28.633Z,100848.00
2018-11-29T07:33:58.584Z,100832.00
2018-11-29T07:36:27.955Z,100831.00
2018-11-29T07:38:57.098Z,100827.00
2018-11-29T07:41:26.274Z,100835.00
2018-11-29T07:43:55.399Z,100823.00
2018-11-29T07:46:24.578Z,100824.00
2018-11-29T07:48:53.692Z,100816.00
2018-11-29T07:51:22.888Z,100816.00
2018-11-29T07:53:52.032Z,100815.00
2018-11-29T07:56:23.897Z,100812.00
2018-11-29T07:58:53.379Z,100812.00
2018-11-29T08:01:22.602Z,100820.00
2018-11-29T08:03:52.075Z,100811.00
2018-11-29T08:06:21.370Z,100820.00
2018-11-29T08:08:51.399Z,100813.00
2018-11-29T08:11:20.661Z,100820.00
2018-11-29T08:13:50.052Z,100813.00
2018-11-29T08:16:19.562Z,100811.00
2018-11-29T08:18:48.675Z,100798.00
2018-11-29T08:21:24.112Z,100808.00
2018-11-29T08:23:53.477Z,100803.00
2018-11-29T08:26:22.623Z,100806.00
2018-11-29T08:28:53.125Z,100806.00
2018-11-29T08:31:22.371Z,100803.00
2018-11-29T08:33:52.074Z,100805.00
2018-11-29T08:36:21.201Z,100802.00
2018-11-29T08:38:50.295Z,100807.00
2018-11-29T08:41:19.905Z,100808.00
2018-11-29T08:43:49.151Z,100806.00
2018-11-29T08:46:19.586Z,100810.00
2018-11-29T08:48:48.669Z,100799.00
2018-11-29T08:51:17.792Z,100811.00
2018-11-29T08:53:46.893Z,100805.00
2018-11-29T08:56:16.855Z,100803.00
2018-11-29T08:58:46.363Z,100789.00
2018-11-29T09:01:17.351Z,100791.00
2018-11-29T09:03:47.386Z,100786.00
2018-11-29T09:06:18.261Z,100788.00
2018-11-29T09:08:49.057Z,100797.00
2018-11-29T09:11:23.757Z,100792.00
2018-11-29T09:14:04.545Z,100791.00
2018-11-29T09:16:33.839Z,100792.00
2018-11-29T09:19:03.195Z,100792.00
2018-11-29T09:21:32.575Z,100792.00
2018-11-29T09:24:01.774Z,100787.00
2018-11-29T09:26:30.972Z,100783.00
2018-11-29T09:29:00.271Z,100777.00
2018-11-29T09:31:30.213Z,100788.00
2018-11-29T09:34:00.019Z,100787.00
2018-11-29T09:36:29.787Z,100783.00
2018-11-29T09:39:01.481Z,100783.00
2018-11-29T09:41:34.044Z,100781.00
2018-11-29T09:44:05.087Z,100777.00
2018-11-29T09:46:36.224Z,100777.00
2018-11-29T09:49:45.781Z,100761.00
2018-11-29T09:52:14.980Z,100768.00
2018-11-29T09:55:05.817Z,100768.00
2018-11-29T09:57:38.315Z,100770.00
2018-11-29T10:00:37.752Z,100766.00
2018-11-29T10:03:23.202Z,100762.00
2018-11-29T10:05:52.326Z,100764.00
2018-11-29T10:08:26.014Z,100765.00
2018-11-29T10:10:51.850Z,100768.00
2018-11-29T10:13:21.008Z,100762.00
2018-11-29T10:15:50.088Z,100768.00
2018-11-29T10:18:20.115Z,100763.00
2018-11-29T10:20:50.257Z,100765.00
2018-11-29T10:23:19.492Z,100753.00
2018-11-29T10:25:48.638Z,100753.00
2018-11-29T10:28:18.402Z,100748.00
2018-11-29T10:30:58.666Z,100753.00
2018-11-29T10:33:27.740Z,100746.00
2018-11-29T10:35:59.384Z,100740.00
2018-11-29T10:38:26.036Z,100739.00
2018-11-29T10:40:55.430Z,100737.00
2018-11-29T10:43:24.588Z,100729.00
2018-11-29T10:45:53.764Z,100738.00
2018-11-29T10:48:24.354Z,100724.00
2018-11-29T10:57:18.675Z,100725.00
2018-11-29T11:03:14.589Z,100708.00
2018-11-29T11:08:44.592Z,100705.00
2018-11-29T11:11:15.920Z,100707.00
2018-11-29T11:13:45.070Z,100708.00
2018-11-29T11:16:14.144Z,100703.00
2018-11-29T11:18:43.249Z,100710.00
2018-11-29T11:21:12.348Z,100704.00
2018-11-29T11:23:41.494Z,100697.00
2018-11-29T11:26:10.719Z,100693.00
2018-11-29T11:28:40.798Z,100698.00
2018-11-29T11:31:10.993Z,100700.00
2018-11-29T11:33:40.100Z,100699.00
2018-11-29T11:36:09.610Z,100691.00
2018-11-29T11:38:40.677Z,100693.00
2018-11-29T11:42:17.044Z,100691.00
2018-11-29T11:44:46.170Z,100685.00
2018-11-29T11:47:15.298Z,100686.00
2018-11-29T11:49:44.351Z,100677.00
2018-11-29T11:52:13.447Z,100677.00
2018-11-29T11:54:42.714Z,100682.00
2018-11-29T11:57:12.495Z,100693.00
2018-11-29T11:59:42.473Z,100686.00
2018-11-29T12:02:11.846Z,100681.00
2018-11-29T12:04:48.597Z,100684.00
2018-11-29T12:07:14.315Z,100687.00
2018-11-29T12:09:43.561Z,100687.00
2018-11-29T12:12:12.967Z,100682.00
2018-11-29T12:14:48.635Z,100680.00
2018-11-29T12:17:18.013Z,100674.00
2018-11-29T12:19:47.435Z,100676.00
2018-11-29T12:22:26.142Z,100675.00
2018-11-29T12:24:58.387Z,100669.00
2018-11-29T12:27:31.725Z,100670.00
2018-11-29T12:30:03.461Z,100674.00
2018-11-29T12:32:33.753Z,100662.00
2018-11-29T12:35:04.201Z,100668.00
2018-11-29T12:37:40.459Z,100655.00
2018-11-29T12:40:13.275Z,100664.00
2018-11-29T12:42:42.673Z,100659.00
2018-11-29T12:45:13.323Z,100643.00
2018-11-29T12:47:42.791Z,100628.00
2018-11-29T12:50:16.420Z,100618.00
2018-11-29T12:53:06.134Z,100614.00
2018-11-29T12:56:16.167Z,100615.00
2018-11-29T12:58:49.074Z,100629.00
2018-11-29T13:01:16.867Z,100622.00
2018-11-29T13:03:46.002Z,100620.00
2018-11-29T13:06:17.937Z,100611.00
2018-11-29T13:08:47.229Z,100602.00
2018-11-29T13:11:16.915Z,100598.00
2018-11-29T13:13:46.204Z,100603.00
2018-11-29T13:16:15.863Z,100581.00
2018-11-29T13:18:45.319Z,100571.00
2018-11-29T13:21:14.795Z,100588.00
2018-11-29T13:23:44.259Z,100569.00
2018-11-29T13:26:13.565Z,100581.00
2018-11-29T13:28:42.959Z,100569.00
2018-11-29T13:33:53.399Z,100576.00
2018-11-29T13:36:24.384Z,100561.00
2018-11-29T13:38:54.872Z,100558.00
2018-11-29T13:41:24.106Z,100563.00
2018-11-29T13:43:54.925Z,100562.00
2018-11-29T13:46:24.162Z,100565.00
2018-11-29T13:48:53.371Z,100561.00
2018-11-29T13:51:23.048Z,100550.00
2018-11-29T13:54:01.197Z,100545.00
2018-11-29T13:56:30.145Z,100542.00
2018-11-29T13:58:59.339Z,100541.00
2018-11-29T14:01:29.482Z,100534.00
2018-11-29T14:03:58.693Z,100519.00
2018-11-29T14:06:28.078Z,100525.00
2018-11-29T14:08:57.829Z,100521.00
2018-11-29T14:16:27.157Z,100523.00
2018-11-29T14:18:56.311Z,100499.00
2018-11-29T14:21:25.880Z,100481.00
2018-11-29T14:23:58.914Z,100490.00
2018-11-29T14:26:28.367Z,100483.00
2018-11-29T14:29:00.467Z,100470.00
2018-11-29T14:33:47.282Z,100476.00
2018-11-29T14:36:23.050Z,100507.00
2018-11-29T14:38:52.765Z,100512.00
2018-11-29T14:41:22.503Z,100502.00
2018-11-29T14:46:48.235Z,100500.00
2018-11-29T14:50:30.692Z,100497.00
2018-11-29T14:53:00.229Z,100497.00
2018-11-29T14:55:30.190Z,100499.00
2018-11-29T14:58:19.573Z,100489.00
2018-11-29T15:00:44.740Z,100481.00
2018-11-29T15:03:22.400Z,100488.00
2018-11-29T15:05:51.941Z,100480.00
2018-11-29T15:08:21.438Z,100470.00
2018-11-29T15:10:51.130Z,100476.00
2018-11-29T15:19:59.346Z,100481.00
2018-11-29T15:24:29.678Z,100478.00
2018-11-29T15:27:03.221Z,100480.00
2018-11-29T15:29:32.734Z,100463.00
2018-11-29T15:32:02.178Z,100453.00
2018-11-29T15:35:04.053Z,100447.00
2018-11-29T15:37:39.893Z,100435.00
2018-11-29T15:41:08.378Z,100433.00
2018-11-29T15:45:23.134Z,100443.00
2018-11-29T15:47:54.090Z,100458.00
2018-11-29T15:50:23.474Z,100438.00
2018-11-29T15:52:53.032Z,100443.00
2018-11-29T15:56:04.386Z,100443.00
2018-11-29T15:58:33.754Z,100432.00
2018-11-29T16:01:08.182Z,100443.00
2018-11-29T16:03:38.603Z,100448.00
2018-11-29T16:06:08.144Z,100445.00
2018-11-29T16:08:37.912Z,100435.00
2018-11-29T16:11:07.812Z,100424.00
2018-11-29T16:13:37.071Z,100428.00
2018-11-29T16:16:06.646Z,100427.00
2018-11-29T16:18:36.848Z,100422.00
2018-11-29T16:21:07.738Z,100414.00
2018-11-29T16:23:37.246Z,100406.00
2018-11-29T16:26:29.057Z,100410.00
2018-11-29T16:28:58.674Z,100416.00
2018-11-29T16:32:08.899Z,100400.00
2018-11-29T16:37:41.562Z,100390.00
2018-11-29T16:40:11.343Z,100394.00
2018-11-29T16:42:40.869Z,100392.00
2018-11-29T16:45:13.331Z,100392.00
2018-11-29T16:47:44.196Z,100384.00
2018-11-29T16:50:15.766Z,100395.00
2018-11-29T16:52:45.168Z,100397.00
2018-11-29T16:55:16.363Z,100395.00
2018-11-29T16:57:59.124Z,100386.00
2018-11-29T17:00:28.979Z,100379.00
2018-11-29T17:02:58.207Z,100381.00
2018-11-29T17:05:27.893Z,100378.00
2018-11-29T17:07:57.085Z,100378.00
2018-11-29T17:10:26.332Z,100373.00
2018-11-29T17:12:59.636Z,100374.00
2018-11-29T17:15:36.309Z,100370.00
2018-11-29T17:18:46.313Z,100367.00
2018-11-29T17:21:15.515Z,100357.00
2018-11-29T17:23:44.728Z,100344.00
2018-11-29T17:26:15.790Z,100338.00
2018-11-29T17:28:45.090Z,100339.00
2018-11-29T17:31:15.036Z,100324.00
2018-11-29T17:33:45.229Z,100320.00
2018-11-29T17:36:14.520Z,100321.00
2018-11-29T17:38:44.201Z,100320.00
2018-11-29T17:41:13.419Z,100316.00
2018-11-29T17:43:42.540Z,100318.00
2018-11-29T17:46:11.724Z,100308.00
2018-11-29T17:48:40.856Z,100306.00
2018-11-29T17:51:29.163Z,100307.00
2018-11-29T17:53:58.328Z,100314.00
2018-11-29T17:56:39.204Z,100306.00
2018-11-29T17:59:08.738Z,100308.00
2018-11-29T18:04:19.519Z,100304.00
2018-11-29T18:06:48.722Z,100266.00
2018-11-29T18:09:17.825Z,100273.00
2018-11-29T18:11:46.935Z,100289.00
2018-11-29T18:14:16.327Z,100260.00
2018-11-29T18:16:45.617Z,100265.00
2018-11-29T18:19:14.687Z,100250.00
2018-11-29T18:21:44.630Z,100250.00
2018-11-29T18:24:13.980Z,100243.00
2018-11-29T18:26:43.284Z,100226.00
2018-11-29T18:29:13.089Z,100222.00
2018-11-29T18:32:06.918Z,100215.00
2018-11-29T18:34:36.172Z,100229.00
2018-11-29T18:37:05.723Z,100230.00
2018-11-29T18:39:35.034Z,100239.00
2018-11-29T18:42:04.370Z,100234.00
2018-11-29T18:44:35.985Z,100247.00
2018-11-29T18:47:11.224Z,100237.00
2018-11-29T18:49:40.901Z,100247.00
2018-11-29T18:52:36.829Z,100255.00
2018-11-29T18:58:15.374Z,100349.00
2018-11-29T19:00:52.212Z,100345.00
2018-11-29T19:03:21.626Z,100334.00
2018-11-29T19:06:05.594Z,100324.00
2018-11-29T19:08:36.831Z,100333.00
2018-11-29T19:11:33.044Z,100330.00
2018-11-29T19:17:38.179Z,100296.00
2018-11-29T19:20:15.679Z,100307.00
2018-11-29T19:22:44.994Z,100290.00
2018-11-29T19:25:20.144Z,100292.00
2018-11-29T19:28:08.262Z,100288.00
2018-11-29T19:30:46.889Z,100278.00
2018-11-29T19:33:22.393Z,100264.00
2018-11-29T19:36:09.890Z,100268.00
2018-11-29T19:44:47.741Z,100278.00
2018-11-29T19:47:40.571Z,100274.00
2018-11-29T19:53:27.844Z,100274.00
2018-11-29T19:56:01.892Z,100261.00
2018-11-29T19:58:32.262Z,100264.00
2018-11-29T20:04:14.147Z,100268.00
2018-11-29T20:06:45.837Z,100274.00
2018-11-29T20:09:15.689Z,100253.00
2018-11-29T20:11:49.657Z,100263.00
2018-11-29T20:14:58.209Z,100288.00
2018-11-29T20:17:49.999Z,100288.00
2018-11-29T20:20:19.337Z,100278.00
2018-11-29T20:22:49.449Z,100290.00
2018-11-29T20:25:20.694Z,100302.00
2018-11-29T20:28:55.097Z,100287.00
2018-11-29T20:31:38.593Z,100286.00
2018-11-29T20:34:07.799Z,100317.00
2018-11-29T20:36:37.117Z,100288.00
2018-11-29T20:39:09.811Z,100287.00
2018-11-29T20:41:41.583Z,100292.00
2018-11-29T20:44:11.546Z,100301.00
2018-11-29T20:53:09.700Z,100302.00
2018-11-29T20:55:52.247Z,100296.00
2018-11-29T20:58:21.583Z,100287.00
2018-11-29T21:00:51.027Z,100289.00
2018-11-29T21:03:20.149Z,100279.00
2018-11-29T21:05:49.275Z,100274.00
2018-11-29T21:08:18.353Z,100282.00
2018-11-29T21:10:47.439Z,100285.00
2018-11-29T21:13:16.733Z,100275.00
2018-11-29T21:15:56.209Z,100280.00
2018-11-29T21:18:55.581Z,100270.00
2018-11-29T21:21:24.831Z,100281.00
2018-11-29T21:23:54.012Z,100283.00
2018-11-29T21:26:42.395Z,100283.00
2018-11-29T21:29:12.423Z,100284.00
2018-11-29T21:31:41.627Z,100282.00
2018-11-29T21:34:31.938Z,100271.00
2018-11-29T21:37:27.015Z,100269.00
2018-11-29T21:39:56.193Z,100270.00
2018-11-29T21:42:26.465Z,100262.00
2018-11-29T21:44:56.275Z,100270.00
2018-11-29T21:47:25.419Z,100278.00
2018-11-29T21:49:55.363Z,100271.00
2018-11-29T21:52:24.859Z,100274.00
2018-11-29T21:54:54.425Z,100278.00
2018-11-29T21:57:23.883Z,100267.00
2018-11-29T21:59:53.719Z,100265.00
2018-11-29T22:02:23.485Z,100260.00
2018-11-29T22:04:53.652Z,100254.00
2018-11-29T22:07:35.165Z,100262.00
2018-11-29T22:10:04.869Z,100260.00
2018-11-29T22:12:35.443Z,100261.00
2018-11-29T22:15:05.879Z,100250.00
2018-11-29T22:17:35.465Z,100247.00
2018-11-29T22:23:14.121Z,100231.00
2018-11-29T22:25:44.196Z,100232.00
2018-11-29T22:28:14.307Z,100228.00
2018-11-29T22:30:43.978Z,100224.00
2018-11-29T22:33:13.579Z,100233.00
2018-11-29T22:35:43.962Z,100231.00
2018-11-29T22:39:16.301Z,100233.00
2018-11-29T22:41:45.519Z,100223.00
2018-11-29T22:44:17.887Z,100227.00
2018-11-29T22:46:47.157Z,100232.00
2018-11-29T22:49:42.695Z,100248.00
2018-11-29T22:52:11.983Z,100238.00
2018-11-29T22:54:41.376Z,100246.00
2018-11-29T22:57:11.721Z,100236.00
2018-11-29T22:59:41.768Z,100246.00
2018-11-29T23:02:12.900Z,100242.00
2018-11-29T23:04:44.891Z,100236.00
2018-11-29T23:07:14.308Z,100234.00
2018-11-29T23:09:44.799Z,100231.00
2018-11-29T23:12:42.893Z,100237.00
2018-11-29T23:15:13.058Z,100239.00
2018-11-29T23:17:42.119Z,100238.00
2018-11-29T23:27:39.032Z,100226.00
2018-11-29T23:30:17.410Z,100212.00
2018-11-29T23:33:22.468Z,100209.00
2018-11-29T23:35:51.670Z,100201.00
2018-11-29T23:38:21.070Z,100214.00
2018-11-29T23:44:16.590Z,100231.00
2018-11-29T23:46:46.519Z,100210.00
2018-11-29T23:49:16.488Z,100204.00
2018-11-29T23:51:46.127Z,100215.00
2018-11-29T23:54:15.390Z,100234.00
2018-11-29T23:56:44.909Z,100222.00
2018-11-29T23:59:20.106Z,100233.00
